Time;durP1;ratioP1;P1;durP2;ratioP2;P2;SDS_P1;SDS_P2;PMS_P1;PMS_P2;Temp;Humidity;BMP_temperature;BMP_pressure;BME280_temperature;BME280_humidity;BME280_pressure;Samples;Min_cycle;Max_cycle;Signal;HPM_P1;HPM_P2
2021/05/01 00:02:16;;;;;;;;;32.25;32.25;;;;;;;;5021886;28;11596;-83
2021/05/01 00:04:43;;;;;;;;;33.50;33.50;;;;;;;;5020513;28;11688;-83
2021/05/01 00:07:10;;;;;;;;;27.25;26.50;;;;;;;;5025446;28;11603;-83
2021/05/01 00:09:37;;;;;;;;;28.00;24.33;;;;;;;;5024973;28;11615;-83
2021/05/01 00:12:08;;;;;;;;;27.00;27.00;;;;;;;;5024404;28;11600;-82
2021/05/01 00:14:36;;;;;;;;;33.25;30.25;;;;;;;;5022045;28;11717;-81
2021/05/01 00:17:03;;;;;;;;;37.75;34.50;;;;;;;;5019812;28;11691;-81
2021/05/01 00:19:30;;;;;;;;;27.50;25.50;;;;;;;;5023270;28;11710;-82
2021/05/01 00:21:57;;;;;;;;;31.00;26.75;;;;;;;;5024702;28;11605;-81
2021/05/01 00:24:24;;;;;;;;;33.75;32.25;;;;;;;;5022044;28;11768;-83
2021/05/01 00:26:50;;;;;;;;;38.75;34.25;;;;;;;;5025930;28;11599;-82
2021/05/01 00:29:18;;;;;;;;;38.25;33.50;;;;;;;;5032146;28;11709;-80
2021/05/01 00:31:45;;;;;;;;;35.00;30.25;;;;;;;;5020029;28;11568;-80
2021/05/01 00:34:13;;;;;;;;;34.50;31.50;;;;;;;;5026205;28;11620;-81
2021/05/01 00:36:40;;;;;;;;;31.50;31.50;;;;;;;;5020570;28;11668;-79
2021/05/01 00:39:07;;;;;;;;;31.25;31.25;;;;;;;;5021100;28;11734;-80
2021/05/01 00:41:34;;;;;;;;;41.75;37.25;;;;;;;;5019470;28;11626;-80
2021/05/01 00:44:04;;;;;;;;;31.00;24.75;;;;;;;;5020683;28;11683;-80
2021/05/01 00:46:32;;;;;;;;;29.75;29.75;;;;;;;;5003029;28;11616;-81
2021/05/01 00:48:59;;;;;;;;;36.75;34.50;;;;;;;;5028333;28;11809;-83
2021/05/01 00:51:27;;;;;;;;;37.00;30.50;;;;;;;;5027068;28;11880;-84
2021/05/01 00:53:54;;;;;;;;;35.25;30.50;;;;;;;;5022405;28;11642;-84
2021/05/01 00:56:21;;;;;;;;;31.25;29.75;;;;;;;;5023465;28;11618;-83
2021/05/01 00:58:48;;;;;;;;;38.25;33.00;;;;;;;;5024590;28;11615;-84
2021/05/01 01:01:18;;;;;;;;;37.50;33.00;;;;;;;;5025053;28;11596;-83
2021/05/01 01:03:47;;;;;;;;;40.25;33.75;;;;;;;;5026432;28;11626;-81
2021/05/01 01:06:15;;;;;;;;;37.75;32.25;;;;;;;;5020588;28;11620;-81
2021/05/01 01:08:42;;;;;;;;;32.75;32.75;;;;;;;;5023114;28;11619;-82
2021/05/01 01:11:10;;;;;;;;;36.75;31.75;;;;;;;;5020749;28;11641;-83
2021/05/01 01:13:37;;;;;;;;;30.75;30.00;;;;;;;;5024450;28;11762;-84
2021/05/01 01:16:05;;;;;;;;;29.50;27.75;;;;;;;;5022893;28;11618;-82
2021/05/01 01:18:33;;;;;;;;;33.00;31.25;;;;;;;;5028220;28;11566;-82
2021/05/01 01:21:03;;;;;;;;;38.50;35.50;;;;;;;;5027269;28;11603;-81
2021/05/01 01:23:31;;;;;;;;;35.75;32.75;;;;;;;;5020797;28;11769;-82
2021/05/01 01:25:59;;;;;;;;;35.00;31.25;;;;;;;;5023379;28;11617;-81
2021/05/01 01:28:26;;;;;;;;;36.00;33.00;;;;;;;;5020230;28;11581;-82
2021/05/01 01:30:53;;;;;;;;;39.00;34.00;;;;;;;;5019085;28;11591;-83
2021/05/01 01:33:20;;;;;;;;;31.00;28.50;;;;;;;;5018773;28;12623;-81
2021/05/01 01:35:47;;;;;;;;;37.75;33.00;;;;;;;;5020180;28;11625;-84
2021/05/01 01:38:14;;;;;;;;;39.25;36.50;;;;;;;;5019512;28;11713;-82
2021/05/01 01:40:42;;;;;;;;;36.00;34.75;;;;;;;;5032706;28;11628;-83
2021/05/01 01:43:09;;;;;;;;;35.25;32.25;;;;;;;;5024503;28;11586;-79
2021/05/01 01:45:36;;;;;;;;;38.75;36.25;;;;;;;;5023854;28;11626;-80
2021/05/01 01:48:04;;;;;;;;;36.00;33.00;;;;;;;;5020813;28;11612;-81
2021/05/01 01:50:31;;;;;;;;;35.00;32.75;;;;;;;;5021281;28;12311;-81
2021/05/01 01:52:58;;;;;;;;;40.50;34.50;;;;;;;;5024176;28;11629;-81
2021/05/01 01:55:25;;;;;;;;;49.25;41.25;;;;;;;;5020926;28;11648;-80
2021/05/01 01:57:54;;;;;;;;;36.00;31.25;;;;;;;;5025681;28;12375;-80
2021/05/01 02:00:23;;;;;;;;;35.25;33.00;;;;;;;;5020304;28;12178;-80
2021/05/01 02:02:50;;;;;;;;;42.00;37.25;;;;;;;;5022866;28;11614;-82
2021/05/01 02:05:17;;;;;;;;;37.75;35.75;;;;;;;;5025914;28;11591;-82
2021/05/01 02:07:43;;;;;;;;;40.25;36.00;;;;;;;;5023744;28;11784;-81
2021/05/01 02:10:12;;;;;;;;;48.75;37.25;;;;;;;;5026428;28;11740;-81
2021/05/01 02:12:40;;;;;;;;;37.00;34.75;;;;;;;;5025473;28;12341;-82
2021/05/01 02:15:11;;;;;;;;;28.00;27.25;;;;;;;;5028755;28;11610;-82
2021/05/01 02:17:39;;;;;;;;;30.25;25.25;;;;;;;;5028575;28;11632;-82
2021/05/01 02:20:08;;;;;;;;;37.00;35.50;;;;;;;;5025759;28;11666;-83
2021/05/01 02:22:35;;;;;;;;;37.75;37.75;;;;;;;;5029862;28;11593;-85
2021/05/01 02:25:03;;;;;;;;;37.25;36.00;;;;;;;;5023427;28;11652;-83
2021/05/01 02:27:30;;;;;;;;;27.75;27.75;;;;;;;;5029898;28;11596;-84
2021/05/01 02:29:57;;;;;;;;;29.25;28.00;;;;;;;;5026497;28;11726;-85
2021/05/01 02:32:25;;;;;;;;;39.75;34.50;;;;;;;;5024908;28;11609;-82
2021/05/01 02:34:52;;;;;;;;;30.25;28.50;;;;;;;;5024543;28;11634;-82
2021/05/01 02:37:19;;;;;;;;;40.75;36.50;;;;;;;;5024786;28;11597;-81
2021/05/01 02:39:46;;;;;;;;;42.25;40.50;;;;;;;;5028298;28;11610;-81
2021/05/01 02:42:13;;;;;;;;;32.00;28.25;;;;;;;;5025164;28;11729;-80
2021/05/01 02:44:40;;;;;;;;;38.25;35.75;;;;;;;;5026344;28;11626;-80
2021/05/01 02:47:07;;;;;;;;;42.25;38.25;;;;;;;;5027835;28;11595;-81
2021/05/01 02:49:35;;;;;;;;;35.25;35.25;;;;;;;;5025505;28;11681;-81
2021/05/01 02:52:02;;;;;;;;;36.00;32.00;;;;;;;;5023465;28;12405;-80
2021/05/01 02:54:29;;;;;;;;;33.75;32.00;;;;;;;;5027883;28;11637;-80
2021/05/01 02:56:56;;;;;;;;;44.00;36.75;;;;;;;;5029868;28;11647;-81
2021/05/01 02:59:23;;;;;;;;;34.50;29.00;;;;;;;;5024095;28;11600;-81
2021/05/01 03:01:50;;;;;;;;;44.00;38.50;;;;;;;;5026527;28;11641;-82
2021/05/01 03:04:17;;;;;;;;;38.25;34.75;;;;;;;;5029914;28;11600;-81
2021/05/01 03:06:45;;;;;;;;;48.00;40.00;;;;;;;;5025067;28;11652;-82
2021/05/01 03:09:12;;;;;;;;;37.50;37.00;;;;;;;;5025040;28;11618;-82
2021/05/01 03:11:39;;;;;;;;;41.25;38.50;;;;;;;;5024447;28;11769;-82
2021/05/01 03:14:06;;;;;;;;;40.25;33.75;;;;;;;;5023543;28;11621;-80
2021/05/01 03:16:33;;;;;;;;;45.00;39.75;;;;;;;;5025450;28;12426;-81
2021/05/01 03:19:00;;;;;;;;;43.25;38.25;;;;;;;;5023013;28;11703;-81
2021/05/01 03:21:27;;;;;;;;;41.00;36.00;;;;;;;;5025727;28;11639;-80
2021/05/01 03:23:55;;;;;;;;;36.25;36.25;;;;;;;;5023313;28;12385;-80
2021/05/01 03:26:22;;;;;;;;;41.50;38.50;;;;;;;;5028979;28;11625;-80
2021/05/01 03:28:49;;;;;;;;;44.00;39.00;;;;;;;;5026469;28;11624;-84
2021/05/01 03:31:16;;;;;;;;;41.75;38.50;;;;;;;;5021874;28;11720;-81
2021/05/01 03:33:43;;;;;;;;;41.25;38.00;;;;;;;;5024776;28;11707;-82
2021/05/01 03:36:10;;;;;;;;;57.00;43.25;;;;;;;;5025346;28;11635;-83
2021/05/01 03:38:37;;;;;;;;;47.25;42.25;;;;;;;;5024829;28;11672;-88
2021/05/01 03:41:05;;;;;;;;;50.75;42.25;;;;;;;;5030345;28;11603;-88
2021/05/01 03:43:32;;;;;;;;;58.75;45.25;;;;;;;;5024337;28;11630;-81
2021/05/01 03:46:01;;;;;;;;;51.00;45.00;;;;;;;;5025202;28;11626;-80
2021/05/01 03:48:28;;;;;;;;;39.25;37.00;;;;;;;;5014924;28;11621;-82
2021/05/01 03:50:55;;;;;;;;;35.00;35.00;;;;;;;;5023596;28;11745;-81
2021/05/01 03:53:22;;;;;;;;;33.25;29.50;;;;;;;;5026586;28;12388;-83
2021/05/01 03:55:49;;;;;;;;;48.75;41.00;;;;;;;;5024731;28;11632;-82
2021/05/01 03:58:17;;;;;;;;;45.50;38.00;;;;;;;;5012500;28;11633;-80
2021/05/01 04:00:44;;;;;;;;;42.00;38.00;;;;;;;;5024494;28;11578;-82
2021/05/01 04:03:11;;;;;;;;;32.50;27.75;;;;;;;;5031098;28;11798;-81
2021/05/01 04:05:37;;;;;;;;;49.25;41.50;;;;;;;;5029188;28;11646;-86
2021/05/01 04:08:05;;;;;;;;;36.25;29.00;;;;;;;;5032827;28;11720;-84
2021/05/01 04:10:33;;;;;;;;;43.50;33.75;;;;;;;;5025209;28;11724;-84
2021/05/01 04:13:00;;;;;;;;;42.25;41.00;;;;;;;;5023415;28;11626;-84
2021/05/01 04:15:28;;;;;;;;;52.50;42.00;;;;;;;;5022679;28;12508;-84
2021/05/01 04:17:55;;;;;;;;;48.25;41.75;;;;;;;;5023001;28;11734;-82
2021/05/01 04:20:22;;;;;;;;;50.75;41.75;;;;;;;;5033149;28;11625;-83
2021/05/01 04:22:50;;;;;;;;;41.00;38.75;;;;;;;;5021738;28;11681;-82
2021/05/01 04:25:17;;;;;;;;;44.50;40.50;;;;;;;;5024482;28;11647;-81
2021/05/01 04:27:43;;;;;;;;;39.25;38.25;;;;;;;;5024594;28;11610;-81
2021/05/01 04:30:12;;;;;;;;;42.75;38.00;;;;;;;;5027297;28;11649;-84
2021/05/01 04:32:40;;;;;;;;;46.75;41.00;;;;;;;;5028865;28;11600;-84
2021/05/01 04:35:07;;;;;;;;;42.25;38.25;;;;;;;;5025671;28;11700;-82
2021/05/01 04:37:34;;;;;;;;;44.00;39.25;;;;;;;;5022190;28;11613;-80
2021/05/01 04:40:01;;;;;;;;;42.50;39.75;;;;;;;;5026644;28;11584;-79
2021/05/01 04:42:28;;;;;;;;;38.75;37.00;;;;;;;;5023007;28;11708;-82
2021/05/01 04:44:55;;;;;;;;;37.50;36.75;;;;;;;;5022808;28;12406;-86
2021/05/01 04:47:22;;;;;;;;;46.50;39.75;;;;;;;;5022398;28;11629;-84
2021/05/01 04:49:50;;;;;;;;;38.75;34.75;;;;;;;;5023055;28;11643;-85
2021/05/01 04:52:17;;;;;;;;;51.75;41.75;;;;;;;;5024606;28;11715;-85
2021/05/01 04:54:44;;;;;;;;;43.75;40.25;;;;;;;;5023489;28;12496;-84
2021/05/01 04:57:11;;;;;;;;;37.25;36.75;;;;;;;;5027004;28;11608;-86
2021/05/01 04:59:38;;;;;;;;;50.00;44.00;;;;;;;;5023499;28;11777;-84
2021/05/01 05:02:05;;;;;;;;;41.50;38.50;;;;;;;;5025348;28;11596;-85
2021/05/01 05:04:32;;;;;;;;;44.75;38.00;;;;;;;;5023516;28;11603;-85
2021/05/01 05:07:00;;;;;;;;;37.25;36.50;;;;;;;;5023037;28;11668;-85
2021/05/01 05:09:27;;;;;;;;;49.00;42.25;;;;;;;;5023121;28;11805;-85
2021/05/01 05:11:54;;;;;;;;;50.00;42.00;;;;;;;;5022969;28;11815;-86
2021/05/01 05:14:21;;;;;;;;;57.00;47.50;;;;;;;;5025196;28;11624;-84
2021/05/01 05:16:48;;;;;;;;;49.75;43.75;;;;;;;;5025805;28;11648;-87
2021/05/01 05:19:15;;;;;;;;;42.00;39.25;;;;;;;;5022236;28;11603;-83
2021/05/01 05:21:42;;;;;;;;;50.50;43.25;;;;;;;;5018837;28;11606;-83
2021/05/01 05:24:10;;;;;;;;;43.50;40.25;;;;;;;;5019991;28;11717;-87
2021/05/01 05:26:39;;;;;;;;;55.50;45.50;;;;;;;;5022459;28;11255;-82
2021/05/01 05:29:07;;;;;;;;;54.75;44.25;;;;;;;;5021541;28;11573;-76
2021/05/01 05:31:34;;;;;;;;;56.50;48.00;;;;;;;;5023116;28;11575;-88
2021/05/01 05:34:01;;;;;;;;;59.25;45.25;;;;;;;;5015696;28;11736;-81
2021/05/01 05:36:28;;;;;;;;;53.50;45.00;;;;;;;;5022719;28;11716;-86
2021/05/01 05:38:55;;;;;;;;;48.50;41.25;;;;;;;;5029365;28;11713;-87
2021/05/01 05:41:24;;;;;;;;;51.75;44.50;;;;;;;;5034335;28;11639;-82
2021/05/01 05:43:52;;;;;;;;;63.75;51.00;;;;;;;;5030167;28;11084;-82
2021/05/01 05:46:19;;;;;;;;;47.50;41.25;;;;;;;;5026218;28;11632;-85
2021/05/01 05:48:46;;;;;;;;;60.00;45.00;;;;;;;;5036235;28;11812;-87
2021/05/01 05:51:13;;;;;;;;;56.25;44.00;;;;;;;;5030519;28;11742;-87
2021/05/01 05:53:40;;;;;;;;;51.50;44.25;;;;;;;;5029347;28;12358;-85
2021/05/01 05:56:07;;;;;;;;;58.75;49.25;;;;;;;;5026798;28;11611;-85
2021/05/01 05:58:36;;;;;;;;;41.75;40.00;;;;;;;;5031763;28;11615;-86
2021/05/01 06:01:03;;;;;;;;;61.75;49.50;;;;;;;;5030125;28;11580;-84
2021/05/01 06:03:31;;;;;;;;;55.00;47.75;;;;;;;;5029873;28;11620;-84
2021/05/01 06:06:03;;;;;;;;;57.50;47.75;;;;;;;;5035808;28;11580;-82
2021/05/01 06:08:31;;;;;;;;;62.50;50.25;;;;;;;;5024540;28;12427;-81
2021/05/01 06:11:02;;;;;;;;;56.50;46.25;;;;;;;;5025069;28;11606;-80
2021/05/01 06:13:32;;;;;;;;;56.00;45.75;;;;;;;;5024032;28;11615;-85
2021/05/01 06:16:01;;;;;;;;;56.50;45.50;;;;;;;;5024728;28;11637;-83
2021/05/01 06:18:33;;;;;;;;;54.00;45.50;;;;;;;;5026931;28;11659;-83
2021/05/01 06:21:01;;;;;;;;;57.00;45.00;;;;;;;;5028221;28;11719;-83
2021/05/01 06:23:28;;;;;;;;;52.75;45.75;;;;;;;;5030871;28;11671;-85
2021/05/01 06:25:56;;;;;;;;;54.00;43.50;;;;;;;;5032232;28;11698;-85
2021/05/01 06:28:23;;;;;;;;;60.50;44.50;;;;;;;;5033311;28;11616;-83
2021/05/01 06:30:50;;;;;;;;;58.50;48.00;;;;;;;;5030721;28;11602;-84
2021/05/01 06:33:18;;;;;;;;;61.75;49.00;;;;;;;;5034107;28;11673;-85
2021/05/01 06:35:47;;;;;;;;;59.50;48.25;;;;;;;;5031045;28;11716;-83
2021/05/01 06:38:14;;;;;;;;;56.25;47.50;;;;;;;;5031639;28;11602;-82
2021/05/01 06:40:42;;;;;;;;;63.00;52.25;;;;;;;;5034527;28;11731;-82
2021/05/01 06:43:14;;;;;;;;;61.50;49.00;;;;;;;;5027736;28;11608;-82
2021/05/01 06:45:42;;;;;;;;;58.00;47.50;;;;;;;;5028081;28;11638;-83
2021/05/01 06:48:10;;;;;;;;;57.00;48.00;;;;;;;;5031143;28;11596;-81
2021/05/01 06:50:40;;;;;;;;;69.75;56.25;;;;;;;;5031360;28;11613;-85
2021/05/01 06:53:07;;;;;;;;;69.50;57.50;;;;;;;;5034471;28;11628;-84
2021/05/01 06:55:35;;;;;;;;;55.75;45.75;;;;;;;;5037625;28;11616;-81
2021/05/01 06:58:04;;;;;;;;;61.75;49.75;;;;;;;;5033803;28;11595;-85
2021/05/01 07:00:31;;;;;;;;;62.50;51.50;;;;;;;;5032892;28;11653;-83
2021/05/01 07:03:04;;;;;;;;;65.75;51.75;;;;;;;;5031743;28;11680;-84
2021/05/01 07:05:32;;;;;;;;;60.25;47.25;;;;;;;;5032571;28;11648;-82
2021/05/01 07:08:00;;;;;;;;;57.75;48.50;;;;;;;;5033557;28;12625;-82
2021/05/01 07:10:27;;;;;;;;;58.75;47.50;;;;;;;;5035806;28;12411;-80
2021/05/01 07:12:55;;;;;;;;;62.25;52.25;;;;;;;;5029287;28;12270;-83
2021/05/01 07:15:23;;;;;;;;;52.00;45.50;;;;;;;;5030089;28;11623;-81
2021/05/01 07:17:52;;;;;;;;;52.00;44.25;;;;;;;;5037223;28;11720;-81
2021/05/01 07:20:19;;;;;;;;;57.25;47.00;;;;;;;;5037733;28;11583;-81
2021/05/01 07:22:46;;;;;;;;;54.50;44.75;;;;;;;;5035423;28;11610;-83
2021/05/01 07:25:15;;;;;;;;;62.75;50.25;;;;;;;;5035307;28;11609;-72
2021/05/01 07:27:47;;;;;;;;;59.75;48.00;;;;;;;;5026987;28;11608;-71
2021/05/01 07:30:16;;;;;;;;;52.00;44.00;;;;;;;;5027772;28;12481;-72
2021/05/01 07:32:44;;;;;;;;;57.00;47.75;;;;;;;;5029108;28;11596;-72
2021/05/01 07:35:13;;;;;;;;;56.25;45.25;;;;;;;;5026230;28;11724;-72
2021/05/01 07:37:41;;;;;;;;;55.50;47.50;;;;;;;;5022185;28;11640;-70
2021/05/01 07:40:12;;;;;;;;;61.00;50.00;;;;;;;;5021295;28;11746;-71
2021/05/01 07:42:42;;;;;;;;;56.00;47.75;;;;;;;;5030346;28;11646;-71
2021/05/01 07:45:11;;;;;;;;;63.75;51.50;;;;;;;;5026937;28;11620;-70
2021/05/01 07:47:39;;;;;;;;;68.25;53.75;;;;;;;;5028095;28;11628;-71
2021/05/01 07:50:06;;;;;;;;;67.75;54.75;;;;;;;;5031862;28;11612;-70
2021/05/01 07:52:35;;;;;;;;;72.25;57.75;;;;;;;;5028541;28;12414;-72
2021/05/01 07:55:03;;;;;;;;;59.75;49.00;;;;;;;;5029454;28;12461;-71
2021/05/01 07:57:30;;;;;;;;;60.00;47.25;;;;;;;;5024870;28;11632;-70
2021/05/01 07:59:58;;;;;;;;;78.00;61.25;;;;;;;;5031938;28;11625;-70
2021/05/01 08:02:25;;;;;;;;;76.25;59.75;;;;;;;;5033533;28;11555;-73
2021/05/01 08:04:52;;;;;;;;;61.00;50.50;;;;;;;;5035732;28;11596;-74
2021/05/01 08:07:19;;;;;;;;;67.00;54.75;;;;;;;;5032600;28;11788;-72
2021/05/01 08:09:46;;;;;;;;;73.75;58.75;;;;;;;;5037520;28;11700;-72
2021/05/01 08:12:13;;;;;;;;;71.25;54.75;;;;;;;;5032400;28;11621;-71
2021/05/01 08:14:40;;;;;;;;;60.50;47.00;;;;;;;;5035370;28;11612;-74
2021/05/01 08:17:08;;;;;;;;;66.50;55.00;;;;;;;;5039140;28;12429;-73
2021/05/01 08:19:35;;;;;;;;;64.75;52.00;;;;;;;;5029457;28;11618;-72
2021/05/01 08:22:02;;;;;;;;;60.25;48.75;;;;;;;;5035036;28;11655;-72
2021/05/01 08:24:29;;;;;;;;;56.25;45.25;;;;;;;;5023663;28;11598;-72
2021/05/01 08:26:56;;;;;;;;;59.25;49.25;;;;;;;;5031043;28;11609;-71
2021/05/01 08:29:23;;;;;;;;;51.50;44.00;;;;;;;;5033068;28;11729;-72
2021/05/01 08:31:49;;;;;;;;;53.25;45.25;;;;;;;;5034558;28;12209;-72
2021/05/01 08:34:17;;;;;;;;;52.50;46.25;;;;;;;;5028559;28;11647;-72
2021/05/01 08:36:44;;;;;;;;;54.25;45.25;;;;;;;;5031465;28;11760;-72
2021/05/01 08:39:11;;;;;;;;;52.00;45.75;;;;;;;;5038453;28;11612;-72
2021/05/01 08:41:37;;;;;;;;;55.50;46.25;;;;;;;;5033402;28;11626;-70
2021/05/01 08:44:06;;;;;;;;;56.25;45.00;;;;;;;;5039151;28;11729;-73
2021/05/01 08:46:33;;;;;;;;;53.25;43.00;;;;;;;;5032125;28;11638;-71
2021/05/01 08:49:00;;;;;;;;;48.50;42.00;;;;;;;;5031427;28;11685;-72
2021/05/01 08:51:28;;;;;;;;;56.50;47.00;;;;;;;;5021107;28;11734;-71
2021/05/01 08:53:54;;;;;;;;;52.50;43.75;;;;;;;;5025517;28;11687;-72
2021/05/01 08:56:26;;;;;;;;;57.00;45.75;;;;;;;;5024087;28;11594;-72
2021/05/01 08:58:54;;;;;;;;;55.00;42.25;;;;;;;;5011464;28;11581;-70
2021/05/01 09:01:22;;;;;;;;;54.00;43.25;;;;;;;;5030044;28;11635;-70
2021/05/01 09:03:52;;;;;;;;;52.00;44.00;;;;;;;;5023527;28;11537;-69
2021/05/01 09:06:22;;;;;;;;;52.00;41.00;;;;;;;;5028838;28;11590;-70
2021/05/01 09:08:55;;;;;;;;;51.50;43.00;;;;;;;;5028960;28;11578;-71
2021/05/01 09:11:36;;;;;;;;;56.75;47.50;;;;;;;;5034292;28;12314;-70
2021/05/01 09:14:16;;;;;;;;;59.00;47.00;;;;;;;;5031119;28;12332;-71
2021/05/01 09:16:43;;;;;;;;;52.75;44.50;;;;;;;;5020850;28;11690;-72
2021/05/01 09:19:11;;;;;;;;;48.75;43.00;;;;;;;;5018054;28;11589;-72
2021/05/01 09:21:38;;;;;;;;;625.00;479.50;;;;;;;;5020640;28;11672;-71
2021/05/01 09:24:07;;;;;;;;;122.00;102.33;;;;;;;;5020220;28;8856;-72
2021/05/01 09:26:39;;;;;;;;;82.50;66.25;;;;;;;;5024119;28;8836;-73
2021/05/01 09:29:05;;;;;;;;;77.00;60.75;;;;;;;;5027600;28;11661;-71
2021/05/01 09:31:40;;;;;;;;;58.50;48.75;;;;;;;;5031119;28;11617;-71
2021/05/01 09:34:07;;;;;;;;;54.75;44.75;;;;;;;;5028536;28;11564;-71
2021/05/01 09:36:35;;;;;;;;;50.50;42.00;;;;;;;;5028423;28;11627;-70
2021/05/01 09:39:12;;;;;;;;;56.00;45.75;;;;;;;;5020069;28;11539;-70
2021/05/01 09:41:41;;;;;;;;;53.50;44.00;;;;;;;;5021325;28;11576;-71
2021/05/01 09:44:09;;;;;;;;;54.00;44.75;;;;;;;;5021762;28;11529;-70
2021/05/01 09:46:47;;;;;;;;;58.25;46.75;;;;;;;;5021736;28;11570;-71
2021/05/01 09:49:16;;;;;;;;;47.75;41.00;;;;;;;;5025455;28;11545;-71
2021/05/01 09:51:52;;;;;;;;;38.50;35.50;;;;;;;;5022387;28;11645;-71
2021/05/01 09:54:21;;;;;;;;;41.75;37.50;;;;;;;;5025087;28;11071;-72
2021/05/01 09:56:50;;;;;;;;;43.50;37.75;;;;;;;;5033863;28;11825;-72
2021/05/01 09:59:17;;;;;;;;;50.00;41.25;;;;;;;;5029306;28;11271;-72
2021/05/01 10:01:56;;;;;;;;;41.00;36.50;;;;;;;;5021016;28;11507;-70
2021/05/01 10:04:23;;;;;;;;;46.75;36.75;;;;;;;;5021986;28;11510;-70
2021/05/01 10:06:53;;;;;;;;;41.75;38.00;;;;;;;;5025999;28;11342;-70
2021/05/01 10:09:23;;;;;;;;;43.75;38.00;;;;;;;;5028595;28;11065;-69
2021/05/01 10:11:53;;;;;;;;;46.25;37.00;;;;;;;;5029908;28;11019;-70
2021/05/01 10:14:35;;;;;;;;;42.50;39.00;;;;;;;;5021155;28;10870;-71
2021/05/01 10:17:03;;;;;;;;;42.75;38.00;;;;;;;;5015354;28;11217;-70
2021/05/01 10:19:47;;;;;;;;;54.25;46.50;;;;;;;;5021608;28;10886;-71
2021/05/01 10:22:34;;;;;;;;;45.75;37.25;;;;;;;;5022676;28;11549;-72
2021/05/01 10:25:05;;;;;;;;;50.00;41.00;;;;;;;;5012151;28;11035;-73
2021/05/01 10:27:45;;;;;;;;;39.50;35.75;;;;;;;;5025652;28;11251;-75
2021/05/01 10:30:16;;;;;;;;;42.00;38.75;;;;;;;;5020720;28;10871;-71
2021/05/01 10:32:47;;;;;;;;;45.75;39.75;;;;;;;;5025978;28;11090;-74
2021/05/01 10:35:15;;;;;;;;;57.75;48.00;;;;;;;;5023686;28;11260;-73
2021/05/01 10:37:51;;;;;;;;;37.75;35.00;;;;;;;;5018896;28;11605;-73
2021/05/01 10:40:19;;;;;;;;;42.75;38.75;;;;;;;;5027358;28;10686;-71
2021/05/01 10:42:46;;;;;;;;;40.75;36.75;;;;;;;;5033682;28;11005;-72
2021/05/01 10:45:14;;;;;;;;;45.50;38.75;;;;;;;;5024502;28;11320;-72
2021/05/01 10:48:04;;;;;;;;;46.25;38.75;;;;;;;;5017998;28;11384;-73
2021/05/01 10:50:31;;;;;;;;;46.75;40.50;;;;;;;;5026474;28;11629;-72
2021/05/01 10:53:00;;;;;;;;;41.00;37.25;;;;;;;;5012684;28;11352;-72
2021/05/01 10:55:28;;;;;;;;;48.00;40.75;;;;;;;;5014449;28;11276;-69
2021/05/01 10:57:58;;;;;;;;;45.00;39.25;;;;;;;;5025467;28;11660;-73
2021/05/01 11:00:25;;;;;;;;;46.25;37.50;;;;;;;;5026560;28;11252;-74
2021/05/01 11:03:00;;;;;;;;;48.25;37.75;;;;;;;;5030107;28;11889;-72
2021/05/01 11:05:32;;;;;;;;;40.75;36.50;;;;;;;;5027386;28;10854;-70
2021/05/01 11:08:03;;;;;;;;;40.50;37.50;;;;;;;;5027669;28;10920;-70
2021/05/01 11:10:35;;;;;;;;;40.75;35.50;;;;;;;;5023378;28;10850;-72
2021/05/01 11:13:04;;;;;;;;;28.75;25.00;;;;;;;;5019273;28;10799;-73
2021/05/01 11:15:45;;;;;;;;;42.00;38.50;;;;;;;;5022764;28;11627;-73
2021/05/01 11:18:13;;;;;;;;;41.25;34.75;;;;;;;;5027794;28;11804;-70
2021/05/01 11:20:40;;;;;;;;;32.75;28.25;;;;;;;;5030512;28;11087;-70
2021/05/01 11:23:14;;;;;;;;;38.25;35.00;;;;;;;;5033160;28;10851;-71
2021/05/01 11:25:43;;;;;;;;;41.25;35.50;;;;;;;;5035165;28;10884;-69
2021/05/01 11:28:14;;;;;;;;;36.25;35.00;;;;;;;;5026647;28;11224;-69
2021/05/01 11:30:43;;;;;;;;;40.75;36.50;;;;;;;;5033430;28;10760;-69
2021/05/01 11:33:10;;;;;;;;;42.00;37.25;;;;;;;;5032906;28;11747;-69
2021/05/01 11:35:38;;;;;;;;;46.00;40.25;;;;;;;;5027719;28;11060;-70
2021/05/01 11:38:05;;;;;;;;;44.50;37.00;;;;;;;;5025592;28;10862;-70
2021/05/01 11:40:34;;;;;;;;;47.00;37.75;;;;;;;;5015218;28;10646;-72
2021/05/01 11:43:03;;;;;;;;;38.75;35.50;;;;;;;;5022546;28;10788;-71
2021/05/01 11:45:34;;;;;;;;;45.50;40.50;;;;;;;;5027836;28;10598;-71
2021/05/01 11:48:03;;;;;;;;;37.25;34.00;;;;;;;;5018713;28;11649;-70
2021/05/01 11:50:31;;;;;;;;;38.25;34.75;;;;;;;;5024096;28;10788;-71
2021/05/01 11:53:25;;;;;;;;;32.25;29.50;;;;;;;;5020985;28;10681;-72
2021/05/01 11:55:57;;;;;;;;;30.25;30.25;;;;;;;;5022087;28;10228;-72
2021/05/01 11:58:31;;;;;;;;;30.50;30.50;;;;;;;;5020109;28;10354;-71
2021/05/01 12:01:14;;;;;;;;;46.00;36.50;;;;;;;;5018674;28;10422;-71
2021/05/01 12:03:43;;;;;;;;;36.00;32.50;;;;;;;;5025010;28;10377;-70
2021/05/01 12:06:19;;;;;;;;;32.50;28.25;;;;;;;;5022868;28;10483;-73
2021/05/01 12:08:46;;;;;;;;;24.25;21.50;;;;;;;;5019855;28;10404;-73
2021/05/01 12:11:13;;;;;;;;;36.00;34.00;;;;;;;;5023882;28;10117;-73
2021/05/01 12:13:43;;;;;;;;;10.50;9.00;;;;;;;;5022092;28;10293;-72
2021/05/01 12:16:19;;;;;;;;;20.00;19.50;;;;;;;;5021084;28;9911;-73
2021/05/01 12:18:47;;;;;;;;;35.25;30.00;;;;;;;;5020948;28;9905;-71
2021/05/01 12:21:16;;;;;;;;;27.50;25.00;;;;;;;;5024211;28;10094;-72
2021/05/01 12:23:45;;;;;;;;;24.25;22.00;;;;;;;;5018516;28;10077;-73
2021/05/01 12:26:36;;;;;;;;;41.00;36.50;;;;;;;;5022775;28;9811;-73
2021/05/01 12:29:32;;;;;;;;;22.50;20.25;;;;;;;;5035481;28;10449;-72
2021/05/01 12:32:05;;;;;;;;;32.75;30.75;;;;;;;;5008824;28;9622;-73
2021/05/01 12:34:58;;;;;;;;;16.33;15.00;;;;;;;;5021686;28;9769;-73
2021/05/01 12:37:26;;;;;;;;;18.00;18.00;;;;;;;;5006577;28;9189;-73
2021/05/01 12:39:54;;;;;;;;;13.25;13.25;;;;;;;;5009094;28;9280;-73
2021/05/01 12:42:22;;;;;;;;;17.00;17.00;;;;;;;;5019536;28;8889;-71
2021/05/01 12:44:50;;;;;;;;;37.25;35.25;;;;;;;;5012235;28;9056;-72
2021/05/01 12:47:46;;;;;;;;;18.67;18.67;;;;;;;;5020590;28;9731;-71
2021/05/01 12:50:19;;;;;;;;;28.67;28.00;;;;;;;;5042556;28;9785;-71
2021/05/01 12:52:47;;;;;;;;;19.50;18.50;;;;;;;;5021323;28;9270;-73
2021/05/01 12:55:15;;;;;;;;;24.00;23.75;;;;;;;;5021280;28;8877;-73
2021/05/01 12:57:43;;;;;;;;;19.50;18.25;;;;;;;;5031014;28;8886;-73
2021/05/01 13:00:28;;;;;;;;;30.00;30.00;;;;;;;;5016665;28;8972;-71
2021/05/01 13:03:16;;;;;;;;;19.50;18.00;;;;;;;;5025131;28;9063;-74
2021/05/01 13:05:44;;;;;;;;;18.75;17.00;;;;;;;;5025861;28;8880;-73
2021/05/01 13:08:22;;;;;;;;;16.00;15.25;;;;;;;;5026790;28;9469;-71
2021/05/01 13:10:50;;;;;;;;;15.50;13.50;;;;;;;;5032343;28;8967;-73
2021/05/01 13:13:17;;;;;;;;;16.00;14.00;;;;;;;;5027461;28;8879;-73
2021/05/01 13:16:05;;;;;;;;;19.75;19.25;;;;;;;;5033377;28;8954;-72
2021/05/01 13:18:33;;;;;;;;;13.25;13.25;;;;;;;;5032009;28;8982;-73
2021/05/01 13:21:08;;;;;;;;;25.25;25.25;;;;;;;;5031834;28;8860;-73
2021/05/01 13:23:41;;;;;;;;;13.75;13.75;;;;;;;;5030223;28;8917;-70
2021/05/01 13:26:18;;;;;;;;;30.00;30.00;;;;;;;;5036071;28;8935;-72
2021/05/01 13:28:50;;;;;;;;;18.25;18.25;;;;;;;;5019497;28;8952;-70
2021/05/01 13:31:19;;;;;;;;;25.00;25.00;;;;;;;;5021019;28;8824;-72
2021/05/01 13:33:47;;;;;;;;;29.33;29.33;;;;;;;;5024121;28;8865;-74
2021/05/01 13:36:15;;;;;;;;;15.50;15.50;;;;;;;;5022702;28;9022;-72
2021/05/01 13:38:44;;;;;;;;;30.00;30.00;;;;;;;;5023420;28;8974;-72
2021/05/01 13:41:16;;;;;;;;;29.00;26.50;;;;;;;;5026404;28;9064;-72
2021/05/01 13:43:50;;;;;;;;;21.50;21.50;;;;;;;;5029671;28;8874;-73
2021/05/01 13:46:20;;;;;;;;;21.00;21.00;;;;;;;;5031783;28;9650;-69
2021/05/01 13:48:51;;;;;;;;;22.75;21.75;;;;;;;;5025704;28;8884;-70
2021/05/01 13:51:29;;;;;;;;;30.33;29.00;;;;;;;;5028431;28;9722;-72
2021/05/01 13:54:07;;;;;;;;;17.67;16.67;;;;;;;;5031793;28;9203;-72
2021/05/01 13:56:34;;;;;;;;;12.75;12.75;;;;;;;;5028866;28;9029;-70
2021/05/01 13:59:01;;;;;;;;;27.00;25.67;;;;;;;;5035372;28;9572;-74
2021/05/01 14:01:30;;;;;;;;;13.50;11.50;;;;;;;;5028471;28;9361;-73
2021/05/01 14:03:56;;;;;;;;;13.50;13.50;;;;;;;;5024146;28;8868;-73
2021/05/01 14:06:23;;;;;;;;;17.33;17.33;;;;;;;;5029759;28;8872;-74
2021/05/01 14:08:50;;;;;;;;;12.00;9.25;;;;;;;;5029475;28;9978;-73
2021/05/01 14:11:17;;;;;;;;;13.00;13.00;;;;;;;;5028420;28;8828;-72
2021/05/01 14:13:45;;;;;;;;;10.25;10.25;;;;;;;;5032963;28;9646;-74
2021/05/01 14:16:17;;;;;;;;;11.00;9.00;;;;;;;;5032135;28;8899;-73
2021/05/01 14:18:45;;;;;;;;;10.00;10.00;;;;;;;;5027975;28;9059;-73
2021/05/01 14:21:12;;;;;;;;;12.67;11.00;;;;;;;;5033459;28;9979;-74
2021/05/01 14:23:45;;;;;;;;;12.67;11.00;;;;;;;;5031982;28;9056;-72
2021/05/01 14:26:14;;;;;;;;;18.00;14.67;;;;;;;;5033744;28;9180;-73
2021/05/01 14:28:41;;;;;;;;;25.00;24.00;;;;;;;;5025268;28;9200;-73
2021/05/01 14:31:18;;;;;;;;;15.67;15.67;;;;;;;;5026511;28;10129;-73